sensor_id;sensor_type;location;lat;lon;timestamp;pressure;altitude;pressure_sealevel;temperature;humidity
40992;BME280;29633;49.168;9.848;2022-07-06T00:01:44;97356.25;;;21.90;38.16
40992;BME280;29633;49.168;9.848;2022-07-06T00:04:10;97368.16;;;21.86;38.16
40992;BME280;29633;49.168;9.848;2022-07-06T00:06:36;97360.78;;;21.81;37.81
40992;BME280;29633;49.168;9.848;2022-07-06T00:09:04;97364.78;;;21.77;38.44
40992;BME280;29633;49.168;9.848;2022-07-06T00:11:29;97360.88;;;21.73;38.09
40992;BME280;29633;49.168;9.848;2022-07-06T00:13:55;97360.56;;;21.68;38.13
40992;BME280;29633;49.168;9.848;2022-07-06T00:16:25;97362.75;;;21.65;38.41
40992;BME280;29633;49.168;9.848;2022-07-06T00:18:51;97358.47;;;21.64;38.84
40992;BME280;29633;49.168;9.848;2022-07-06T00:21:17;97360.47;;;21.62;38.69
40992;BME280;29633;49.168;9.848;2022-07-06T00:23:43;97363.09;;;21.62;38.35
40992;BME280;29633;49.168;9.848;2022-07-06T00:26:09;97365.44;;;21.56;38.81
40992;BME280;29633;49.168;9.848;2022-07-06T00:28:36;97369.16;;;21.47;38.72
40992;BME280;29633;49.168;9.848;2022-07-06T00:31:02;97370.50;;;21.43;38.89
40992;BME280;29633;49.168;9.848;2022-07-06T00:33:28;97368.22;;;21.40;39.03
40992;BME280;29633;49.168;9.848;2022-07-06T00:35:53;97376.50;;;21.37;39.20
40992;BME280;29633;49.168;9.848;2022-07-06T00:38:19;97380.00;;;21.30;38.99
40992;BME280;29633;49.168;9.848;2022-07-06T00:40:45;97373.44;;;21.26;39.42
40992;BME280;29633;49.168;9.848;2022-07-06T00:43:10;97379.88;;;21.23;39.17
40992;BME280;29633;49.168;9.848;2022-07-06T00:45:36;97377.56;;;21.20;39.68
40992;BME280;29633;49.168;9.848;2022-07-06T00:48:02;97381.22;;;21.19;39.26
40992;BME280;29633;49.168;9.848;2022-07-06T00:50:28;97363.91;;;21.17;39.39
40992;BME280;29633;49.168;9.848;2022-07-06T00:53:02;97371.03;;;21.16;39.63
40992;BME280;29633;49.168;9.848;2022-07-06T00:55:37;97366.75;;;21.15;39.87
40992;BME280;29633;49.168;9.848;2022-07-06T00:58:07;97359.19;;;21.12;39.51
40992;BME280;29633;49.168;9.848;2022-07-06T01:00:34;97369.91;;;21.10;39.75
40992;BME280;29633;49.168;9.848;2022-07-06T01:03:00;97370.72;;;21.11;40.03
40992;BME280;29633;49.168;9.848;2022-07-06T01:05:26;97367.91;;;21.13;39.60
40992;BME280;29633;49.168;9.848;2022-07-06T01:07:53;97371.03;;;21.16;40.08
40992;BME280;29633;49.168;9.848;2022-07-06T01:10:20;97374.31;;;21.18;39.95
40992;BME280;29633;49.168;9.848;2022-07-06T01:12:47;97374.16;;;21.20;39.71
40992;BME280;29633;49.168;9.848;2022-07-06T01:15:25;97373.13;;;21.21;39.69
40992;BME280;29633;49.168;9.848;2022-07-06T01:17:51;97374.78;;;21.22;39.31
40992;BME280;29633;49.168;9.848;2022-07-06T01:20:25;97371.16;;;21.23;39.67
40992;BME280;29633;49.168;9.848;2022-07-06T01:22:53;97368.16;;;21.26;39.59
40992;BME280;29633;49.168;9.848;2022-07-06T01:25:20;97366.16;;;21.28;39.43
40992;BME280;29633;49.168;9.848;2022-07-06T01:27:47;97371.44;;;21.28;39.69
40992;BME280;29633;49.168;9.848;2022-07-06T01:30:15;97368.78;;;21.28;39.56
40992;BME280;29633;49.168;9.848;2022-07-06T01:32:42;97366.16;;;21.28;39.31
40992;BME280;29633;49.168;9.848;2022-07-06T01:35:12;97366.50;;;21.25;39.27
40992;BME280;29633;49.168;9.848;2022-07-06T01:37:39;97368.31;;;21.24;39.56
40992;BME280;29633;49.168;9.848;2022-07-06T01:40:08;97374.16;;;21.20;39.80
40992;BME280;29633;49.168;9.848;2022-07-06T01:42:35;97364.94;;;21.16;39.72
40992;BME280;29633;49.168;9.848;2022-07-06T01:45:02;97360.66;;;21.15;39.64
40992;BME280;29633;49.168;9.848;2022-07-06T01:47:28;97362.63;;;21.13;39.59
40992;BME280;29633;49.168;9.848;2022-07-06T01:49:57;97366.41;;;21.10;39.79
40992;BME280;29633;49.168;9.848;2022-07-06T01:52:23;97363.63;;;21.12;39.47
40992;BME280;29633;49.168;9.848;2022-07-06T01:54:48;97367.91;;;21.13;39.88
40992;BME280;29633;49.168;9.848;2022-07-06T01:57:14;97367.91;;;21.13;39.61
40992;BME280;29633;49.168;9.848;2022-07-06T01:59:40;97374.00;;;21.13;39.58
40992;BME280;29633;49.168;9.848;2022-07-06T02:02:06;97372.38;;;21.12;39.74
40992;BME280;29633;49.168;9.848;2022-07-06T02:04:31;97367.09;;;21.12;39.51
40992;BME280;29633;49.168;9.848;2022-07-06T02:06:57;97358.50;;;21.10;39.63
40992;BME280;29633;49.168;9.848;2022-07-06T02:09:23;97366.59;;;21.08;39.64
40992;BME280;29633;49.168;9.848;2022-07-06T02:11:48;97370.22;;;21.07;39.83
40992;BME280;29633;49.168;9.848;2022-07-06T02:14:14;97373.84;;;21.06;39.55
40992;BME280;29633;49.168;9.848;2022-07-06T02:16:40;97369.56;;;21.05;39.82
40992;BME280;29633;49.168;9.848;2022-07-06T02:19:06;97370.38;;;21.06;39.73
40992;BME280;29633;49.168;9.848;2022-07-06T02:21:31;97369.56;;;21.05;39.63
40992;BME280;29633;49.168;9.848;2022-07-06T02:23:57;97365.09;;;21.06;39.74
40992;BME280;29633;49.168;9.848;2022-07-06T02:26:23;97365.94;;;21.06;39.75
40992;BME280;29633;49.168;9.848;2022-07-06T02:28:48;97365.94;;;21.06;39.39
40992;BME280;29633;49.168;9.848;2022-07-06T02:31:14;97362.31;;;21.07;39.40
40992;BME280;29633;49.168;9.848;2022-07-06T02:33:41;97374.66;;;21.07;39.80
40992;BME280;29633;49.168;9.848;2022-07-06T02:36:07;97371.88;;;21.08;39.64
40992;BME280;29633;49.168;9.848;2022-07-06T02:38:33;97373.50;;;21.09;39.92
40992;BME280;29633;49.168;9.848;2022-07-06T02:40:59;97375.31;;;21.09;39.68
40992;BME280;29633;49.168;9.848;2022-07-06T02:43:24;97373.50;;;21.09;39.92
40992;BME280;29633;49.168;9.848;2022-07-06T02:45:50;97376.13;;;21.09;39.91
40992;BME280;29633;49.168;9.848;2022-07-06T02:48:16;97378.75;;;21.09;39.89
40992;BME280;29633;49.168;9.848;2022-07-06T02:50:43;97380.56;;;21.09;39.70
40992;BME280;29633;49.168;9.848;2022-07-06T02:53:08;97370.03;;;21.09;39.77
40992;BME280;29633;49.168;9.848;2022-07-06T02:55:34;97364.75;;;21.09;39.87
40992;BME280;29633;49.168;9.848;2022-07-06T02:58:00;97367.75;;;21.06;40.11
40992;BME280;29633;49.168;9.848;2022-07-06T03:00:26;97363.66;;;21.03;40.27
40992;BME280;29633;49.168;9.848;2022-07-06T03:02:52;97375.03;;;21.04;40.13
40992;BME280;29633;49.168;9.848;2022-07-06T03:05:17;97376.34;;;21.00;39.93
40992;BME280;29633;49.168;9.848;2022-07-06T03:07:43;97379.97;;;20.99;40.08
40992;BME280;29633;49.168;9.848;2022-07-06T03:10:09;97379.50;;;20.95;40.01
40992;BME280;29633;49.168;9.848;2022-07-06T03:12:34;97380.53;;;20.94;40.11
40992;BME280;29633;49.168;9.848;2022-07-06T03:15:00;97382.66;;;20.91;40.36
40992;BME280;29633;49.168;9.848;2022-07-06T03:17:26;97385.28;;;20.91;40.17
40992;BME280;29633;49.168;9.848;2022-07-06T03:19:52;97388.13;;;20.89;40.56
40992;BME280;29633;49.168;9.848;2022-07-06T03:22:18;97384.19;;;20.85;40.38
40992;BME280;29633;49.168;9.848;2022-07-06T03:24:44;97394.09;;;20.83;40.55
40992;BME280;29633;49.168;9.848;2022-07-06T03:27:10;97396.88;;;20.82;40.52
40992;BME280;29633;49.168;9.848;2022-07-06T03:29:35;97394.94;;;20.76;40.76
40992;BME280;29633;49.168;9.848;2022-07-06T03:32:01;97392.66;;;20.73;40.86
40992;BME280;29633;49.168;9.848;2022-07-06T03:34:27;97394.63;;;20.71;40.76
40992;BME280;29633;49.168;9.848;2022-07-06T03:36:53;97396.63;;;20.69;40.79
40992;BME280;29633;49.168;9.848;2022-07-06T03:39:19;97394.97;;;20.68;40.94
40992;BME280;29633;49.168;9.848;2022-07-06T03:41:44;97406.31;;;20.68;40.65
40992;BME280;29633;49.168;9.848;2022-07-06T03:44:10;97398.25;;;20.70;40.83
40992;BME280;29633;49.168;9.848;2022-07-06T03:46:36;97400.72;;;20.71;40.67
40992;BME280;29633;49.168;9.848;2022-07-06T03:49:01;97398.72;;;20.73;40.61
40992;BME280;29633;49.168;9.848;2022-07-06T03:51:27;97401.19;;;20.75;40.68
40992;BME280;29633;49.168;9.848;2022-07-06T03:53:53;97409.91;;;20.75;40.37
40992;BME280;29633;49.168;9.848;2022-07-06T03:56:19;97401.03;;;20.76;40.52
40992;BME280;29633;49.168;9.848;2022-07-06T03:58:55;97407.09;;;20.77;41.14
40992;BME280;29633;49.168;9.848;2022-07-06T04:01:21;97406.31;;;20.76;40.99
40992;BME280;29633;49.168;9.848;2022-07-06T04:03:47;97405.63;;;20.74;41.12
40992;BME280;29633;49.168;9.848;2022-07-06T04:06:13;97414.03;;;20.78;41.06
40992;BME280;29633;49.168;9.848;2022-07-06T04:08:39;97406.78;;;20.80;41.05
40992;BME280;29633;49.168;9.848;2022-07-06T04:11:05;97412.06;;;20.80;40.94
40992;BME280;29633;49.168;9.848;2022-07-06T04:13:31;97415.00;;;20.77;40.96
40992;BME280;29633;49.168;9.848;2022-07-06T04:15:56;97417.00;;;20.75;40.67
40992;BME280;29633;49.168;9.848;2022-07-06T04:18:22;97417.00;;;20.75;40.76
40992;BME280;29633;49.168;9.848;2022-07-06T04:20:48;97416.66;;;20.78;40.67
40992;BME280;29633;49.168;9.848;2022-07-06T04:23:14;97421.28;;;20.76;40.65
40992;BME280;29633;49.168;9.848;2022-07-06T04:25:40;97422.75;;;20.78;40.66
40992;BME280;29633;49.168;9.848;2022-07-06T04:28:05;97424.09;;;20.74;40.90
40992;BME280;29633;49.168;9.848;2022-07-06T04:30:31;97434.31;;;20.69;40.85
40992;BME280;29633;49.168;9.848;2022-07-06T04:32:57;97427.56;;;20.67;40.56
40992;BME280;29633;49.168;9.848;2022-07-06T04:35:23;97434.66;;;20.66;41.05
40992;BME280;29633;49.168;9.848;2022-07-06T04:37:48;97437.28;;;20.66;41.08
40992;BME280;29633;49.168;9.848;2022-07-06T04:40:14;97444.34;;;20.66;41.00
40992;BME280;29633;49.168;9.848;2022-07-06T04:42:40;97441.56;;;20.67;41.49
40992;BME280;29633;49.168;9.848;2022-07-06T04:45:07;97445.03;;;20.68;41.51
40992;BME280;29633;49.168;9.848;2022-07-06T04:47:34;97446.00;;;20.67;41.39
40992;BME280;29633;49.168;9.848;2022-07-06T04:50:00;97453.56;;;20.70;41.52
40992;BME280;29633;49.168;9.848;2022-07-06T04:52:26;97451.59;;;20.72;41.54
40992;BME280;29633;49.168;9.848;2022-07-06T04:54:54;97448.47;;;20.76;41.87
40992;BME280;29633;49.168;9.848;2022-07-06T04:57:20;97463.41;;;20.84;41.92
40992;BME280;29633;49.168;9.848;2022-07-06T04:59:45;97457.47;;;20.90;41.65
40992;BME280;29633;49.168;9.848;2022-07-06T05:02:11;97455.47;;;20.92;42.01
40992;BME280;29633;49.168;9.848;2022-07-06T05:04:37;97454.31;;;20.94;41.49
40992;BME280;29633;49.168;9.848;2022-07-06T05:07:03;97455.44;;;21.00;41.65
40992;BME280;29633;49.168;9.848;2022-07-06T05:09:29;97462.66;;;21.06;41.29
40992;BME280;29633;49.168;9.848;2022-07-06T05:11:55;97462.31;;;21.09;41.39
40992;BME280;29633;49.168;9.848;2022-07-06T05:14:20;97462.19;;;21.10;41.37
40992;BME280;29633;49.168;9.848;2022-07-06T05:16:46;97461.81;;;21.14;41.63
40992;BME280;29633;49.168;9.848;2022-07-06T05:19:12;97455.41;;;21.16;41.41
40992;BME280;29633;49.168;9.848;2022-07-06T05:21:37;97466.25;;;21.21;41.10
40992;BME280;29633;49.168;9.848;2022-07-06T05:24:04;97464.91;;;21.25;40.91
40992;BME280;29633;49.168;9.848;2022-07-06T05:26:29;97461.91;;;21.28;41.19
40992;BME280;29633;49.168;9.848;2022-07-06T05:28:55;97466.38;;;21.28;41.24
40992;BME280;29633;49.168;9.848;2022-07-06T05:31:21;97457.94;;;21.32;40.91
40992;BME280;29633;49.168;9.848;2022-07-06T05:33:47;97465.69;;;21.34;41.07
40992;BME280;29633;49.168;9.848;2022-07-06T05:36:12;97475.19;;;21.43;40.69
40992;BME280;29633;49.168;9.848;2022-07-06T05:38:38;97473.97;;;21.53;40.96
40992;BME280;29633;49.168;9.848;2022-07-06T05:41:04;97473.47;;;21.58;40.45
40992;BME280;29633;49.168;9.848;2022-07-06T05:43:30;97483.31;;;21.64;40.28
40992;BME280;29633;49.168;9.848;2022-07-06T05:45:55;97472.59;;;21.66;40.47
40992;BME280;29633;49.168;9.848;2022-07-06T05:48:21;97470.88;;;21.73;40.32
40992;BME280;29633;49.168;9.848;2022-07-06T05:51:05;97477.47;;;21.77;40.38
40992;BME280;29633;49.168;9.848;2022-07-06T05:53:31;97475.75;;;21.84;40.17
40992;BME280;29633;49.168;9.848;2022-07-06T05:55:57;97482.97;;;21.90;40.03
40992;BME280;29633;49.168;9.848;2022-07-06T05:58:22;97476.00;;;21.97;40.11
40992;BME280;29633;49.168;9.848;2022-07-06T06:00:50;97472.31;;;22.06;40.03
40992;BME280;29633;49.168;9.848;2022-07-06T06:03:16;97478.53;;;22.13;39.92
40992;BME280;29633;49.168;9.848;2022-07-06T06:05:42;97474.53;;;22.17;39.67
40992;BME280;29633;49.168;9.848;2022-07-06T06:08:08;97477.19;;;22.17;39.83
40992;BME280;29633;49.168;9.848;2022-07-06T06:10:34;97475.63;;;22.23;39.82
40992;BME280;29633;49.168;9.848;2022-07-06T06:13:00;97479.09;;;22.23;39.48
40992;BME280;29633;49.168;9.848;2022-07-06T06:15:25;97475.72;;;22.29;39.29
40992;BME280;29633;49.168;9.848;2022-07-06T06:17:51;97480.84;;;22.31;39.28
40992;BME280;29633;49.168;9.848;2022-07-06T06:20:18;97478.66;;;22.34;39.16
40992;BME280;29633;49.168;9.848;2022-07-06T06:22:52;97480.94;;;22.37;39.15
40992;BME280;29633;49.168;9.848;2022-07-06T06:25:36;97476.13;;;22.41;39.23
40992;BME280;29633;49.168;9.848;2022-07-06T06:28:05;97481.88;;;22.44;39.23
40992;BME280;29633;49.168;9.848;2022-07-06T06:30:31;97476.03;;;22.49;39.39
40992;BME280;29633;49.168;9.848;2022-07-06T06:33:18;97485.88;;;22.55;39.10
40992;BME280;29633;49.168;9.848;2022-07-06T06:35:50;97481.88;;;22.59;39.14
40992;BME280;29633;49.168;9.848;2022-07-06T06:38:21;97486.94;;;22.69;39.16
40992;BME280;29633;49.168;9.848;2022-07-06T06:40:47;97485.84;;;22.78;39.24
40992;BME280;29633;49.168;9.848;2022-07-06T06:43:13;97479.38;;;22.80;39.10
40992;BME280;29633;49.168;9.848;2022-07-06T06:45:39;97480.81;;;22.83;39.26
40992;BME280;29633;49.168;9.848;2022-07-06T06:48:06;97483.00;;;22.94;39.06
40992;BME280;29633;49.168;9.848;2022-07-06T06:50:32;97481.72;;;23.04;38.80
40992;BME280;29633;49.168;9.848;2022-07-06T06:52:57;97477.53;;;23.10;38.83
40992;BME280;29633;49.168;9.848;2022-07-06T06:55:23;97476.78;;;23.16;39.08
40992;BME280;29633;49.168;9.848;2022-07-06T06:57:49;97479.50;;;23.23;38.55
40992;BME280;29633;49.168;9.848;2022-07-06T07:00:15;97476.31;;;23.27;38.52
40992;BME280;29633;49.168;9.848;2022-07-06T07:02:41;97480.06;;;23.33;38.72
40992;BME280;29633;49.168;9.848;2022-07-06T07:05:07;97475.38;;;23.35;38.49
40992;BME280;29633;49.168;9.848;2022-07-06T07:07:33;97481.13;;;23.38;38.37
40992;BME280;29633;49.168;9.848;2022-07-06T07:09:59;97482.06;;;23.45;38.40
40992;BME280;29633;49.168;9.848;2022-07-06T07:12:25;97476.00;;;23.51;38.05
40992;BME280;29633;49.168;9.848;2022-07-06T07:14:51;97479.53;;;23.59;38.25
40992;BME280;29633;49.168;9.848;2022-07-06T07:17:17;97473.97;;;23.68;38.25
40992;BME280;29633;49.168;9.848;2022-07-06T07:19:43;97468.72;;;23.75;38.21
40992;BME280;29633;49.168;9.848;2022-07-06T07:22:08;97471.25;;;23.83;37.84
40992;BME280;29633;49.168;9.848;2022-07-06T07:24:34;97481.09;;;23.89;37.94
40992;BME280;29633;49.168;9.848;2022-07-06T07:27:00;97482.97;;;23.95;37.69
40992;BME280;29633;49.168;9.848;2022-07-06T07:29:25;97475.84;;;23.95;37.65
40992;BME280;29633;49.168;9.848;2022-07-06T07:31:54;97475.72;;;24.03;37.87
40992;BME280;29633;49.168;9.848;2022-07-06T07:34:19;97481.06;;;24.10;37.68
40992;BME280;29633;49.168;9.848;2022-07-06T07:36:45;97482.72;;;24.11;37.41
40992;BME280;29633;49.168;9.848;2022-07-06T07:39:11;97485.84;;;24.15;37.25
40992;BME280;29633;49.168;9.848;2022-07-06T07:41:37;97482.81;;;24.18;37.20
40992;BME280;29633;49.168;9.848;2022-07-06T07:44:02;97484.06;;;24.22;37.22
40992;BME280;29633;49.168;9.848;2022-07-06T07:46:28;97475.53;;;24.26;36.81
40992;BME280;29633;49.168;9.848;2022-07-06T07:48:54;97477.41;;;24.32;36.93
40992;BME280;29633;49.168;9.848;2022-07-06T07:51:19;97474.25;;;24.43;36.80
40992;BME280;29633;49.168;9.848;2022-07-06T07:53:45;97479.63;;;24.57;36.66
40992;BME280;29633;49.168;9.848;2022-07-06T07:56:11;97479.47;;;24.65;36.82
40992;BME280;29633;49.168;9.848;2022-07-06T07:58:37;97473.22;;;24.72;36.47
40992;BME280;29633;49.168;9.848;2022-07-06T08:01:03;97475.72;;;24.80;36.30
40992;BME280;29633;49.168;9.848;2022-07-06T08:03:30;97481.47;;;24.84;36.19
40992;BME280;29633;49.168;9.848;2022-07-06T08:05:57;97474.97;;;24.93;36.41
40992;BME280;29633;49.168;9.848;2022-07-06T08:08:23;97481.53;;;24.97;36.16
40992;BME280;29633;49.168;9.848;2022-07-06T08:10:48;97477.91;;;25.05;36.02
40992;BME280;29633;49.168;9.848;2022-07-06T08:13:14;97473.03;;;25.08;36.05
40992;BME280;29633;49.168;9.848;2022-07-06T08:15:41;97473.69;;;25.17;35.98
40992;BME280;29633;49.168;9.848;2022-07-06T08:18:07;97478.63;;;25.26;35.91
40992;BME280;29633;49.168;9.848;2022-07-06T08:20:35;97470.88;;;25.31;35.69
40992;BME280;29633;49.168;9.848;2022-07-06T08:23:01;97473.75;;;25.36;35.62
40992;BME280;29633;49.168;9.848;2022-07-06T08:25:27;97474.59;;;25.43;35.31
40992;BME280;29633;49.168;9.848;2022-07-06T08:27:53;97472.63;;;25.52;35.28
40992;BME280;29633;49.168;9.848;2022-07-06T08:30:19;97468.97;;;25.60;35.30
40992;BME280;29633;49.168;9.848;2022-07-06T08:32:44;97472.03;;;25.63;35.14
40992;BME280;29633;49.168;9.848;2022-07-06T08:35:10;97472.69;;;25.72;35.38
40992;BME280;29633;49.168;9.848;2022-07-06T08:37:36;97478.81;;;25.79;35.32
40992;BME280;29633;49.168;9.848;2022-07-06T08:40:03;97476.78;;;25.87;35.00
40992;BME280;29633;49.168;9.848;2022-07-06T08:42:32;97470.03;;;25.91;34.76
40992;BME280;29633;49.168;9.848;2022-07-06T08:45:04;97472.91;;;25.97;34.51
40992;BME280;29633;49.168;9.848;2022-07-06T08:47:31;97473.94;;;26.02;34.33
40992;BME280;29633;49.168;9.848;2022-07-06T08:49:57;97481.91;;;26.09;34.47
40992;BME280;29633;49.168;9.848;2022-07-06T08:52:24;97482.53;;;26.11;34.09
40992;BME280;29633;49.168;9.848;2022-07-06T08:54:50;97476.25;;;26.18;34.19
40992;BME280;29633;49.168;9.848;2022-07-06T08:57:17;97474.00;;;26.22;34.25
40992;BME280;29633;49.168;9.848;2022-07-06T08:59:43;97472.75;;;26.31;34.15
40992;BME280;29633;49.168;9.848;2022-07-06T09:02:13;97476.44;;;26.36;33.92
40992;BME280;29633;49.168;9.848;2022-07-06T09:04:42;97473.34;;;26.46;34.13
40992;BME280;29633;49.168;9.848;2022-07-06T09:07:08;97464.16;;;26.62;33.97
40992;BME280;29633;49.168;9.848;2022-07-06T09:09:37;97475.97;;;26.79;34.04
40992;BME280;29633;49.168;9.848;2022-07-06T09:12:03;97475.56;;;26.88;34.06
40992;BME280;29633;49.168;9.848;2022-07-06T09:14:29;97475.13;;;26.98;33.94
40992;BME280;29633;49.168;9.848;2022-07-06T09:17:06;97475.50;;;27.08;33.77
40992;BME280;29633;49.168;9.848;2022-07-06T09:19:34;97477.72;;;27.18;33.15
40992;BME280;29633;49.168;9.848;2022-07-06T09:22:01;97481.41;;;27.17;33.07
40992;BME280;29633;49.168;9.848;2022-07-06T09:24:27;97481.63;;;27.15;33.03
40992;BME280;29633;49.168;9.848;2022-07-06T09:26:57;97478.75;;;27.23;33.01
40992;BME280;29633;49.168;9.848;2022-07-06T09:29:31;97480.53;;;27.29;33.06
40992;BME280;29633;49.168;9.848;2022-07-06T09:32:03;97487.72;;;27.29;32.81
40992;BME280;29633;49.168;9.848;2022-07-06T09:34:46;97488.09;;;27.32;32.80
40992;BME280;29633;49.168;9.848;2022-07-06T09:37:13;97494.84;;;27.35;32.92
40992;BME280;29633;49.168;9.848;2022-07-06T09:39:39;97493.66;;;27.31;32.78
40992;BME280;29633;49.168;9.848;2022-07-06T09:42:06;97498.38;;;27.29;32.54
40992;BME280;29633;49.168;9.848;2022-07-06T09:44:41;97496.53;;;27.29;32.41
40992;BME280;29633;49.168;9.848;2022-07-06T09:47:11;97496.16;;;27.19;32.96
40992;BME280;29633;49.168;9.848;2022-07-06T09:49:40;97492.25;;;27.22;32.58
40992;BME280;29633;49.168;9.848;2022-07-06T09:52:09;97501.25;;;27.27;32.29
40992;BME280;29633;49.168;9.848;2022-07-06T09:54:37;97506.16;;;27.30;32.39
40992;BME280;29633;49.168;9.848;2022-07-06T09:57:05;97500.41;;;27.33;32.32
40992;BME280;29633;49.168;9.848;2022-07-06T09:59:34;97510.19;;;27.39;32.43
40992;BME280;29633;49.168;9.848;2022-07-06T10:02:06;97506.09;;;27.44;32.44
40992;BME280;29633;49.168;9.848;2022-07-06T10:04:32;97501.19;;;27.40;32.64
40992;BME280;29633;49.168;9.848;2022-07-06T10:06:59;97498.06;;;27.57;32.38
40992;BME280;29633;49.168;9.848;2022-07-06T10:09:28;97504.78;;;27.66;31.88
40992;BME280;29633;49.168;9.848;2022-07-06T10:12:00;97503.78;;;27.67;31.94
40992;BME280;29633;49.168;9.848;2022-07-06T10:14:32;97502.72;;;27.68;31.92
40992;BME280;29633;49.168;9.848;2022-07-06T10:17:01;97501.25;;;27.72;31.99
40992;BME280;29633;49.168;9.848;2022-07-06T10:19:29;97501.50;;;27.70;31.98
40992;BME280;29633;49.168;9.848;2022-07-06T10:22:00;97505.38;;;27.74;32.01
40992;BME280;29633;49.168;9.848;2022-07-06T10:24:28;97508.28;;;27.66;31.73
40992;BME280;29633;49.168;9.848;2022-07-06T10:26:55;97504.16;;;27.64;31.63
40992;BME280;29633;49.168;9.848;2022-07-06T10:29:21;97509.75;;;27.56;31.53
40992;BME280;29633;49.168;9.848;2022-07-06T10:31:49;97506.47;;;27.54;31.30
40992;BME280;29633;49.168;9.848;2022-07-06T10:34:19;97505.84;;;27.58;31.49
40992;BME280;29633;49.168;9.848;2022-07-06T10:36:50;97504.16;;;27.64;31.29
40992;BME280;29633;49.168;9.848;2022-07-06T10:39:16;97508.72;;;27.63;31.40
40992;BME280;29633;49.168;9.848;2022-07-06T10:45:14;97514.59;;;27.72;31.40
40992;BME280;29633;49.168;9.848;2022-07-06T10:47:41;97505.78;;;27.71;31.51
40992;BME280;29633;49.168;9.848;2022-07-06T10:50:08;97511.50;;;27.75;31.12
40992;BME280;29633;49.168;9.848;2022-07-06T10:55:38;97507.25;;;27.61;31.29
40992;BME280;29633;49.168;9.848;2022-07-06T10:58:04;97502.75;;;27.61;31.53
40992;BME280;29633;49.168;9.848;2022-07-06T11:00:53;97509.09;;;27.67;31.48
40992;BME280;29633;49.168;9.848;2022-07-06T11:06:25;97505.41;;;27.61;31.47
40992;BME280;29633;49.168;9.848;2022-07-06T11:19:18;97505.41;;;27.99;31.03
40992;BME280;29633;49.168;9.848;2022-07-06T11:21:47;97503.56;;;28.00;30.94
40992;BME280;29633;49.168;9.848;2022-07-06T11:24:21;97497.25;;;27.94;31.07
40992;BME280;29633;49.168;9.848;2022-07-06T11:26:49;97500.34;;;27.91;30.91
40992;BME280;29633;49.168;9.848;2022-07-06T11:29:18;97494.41;;;27.89;31.26
40992;BME280;29633;49.168;9.848;2022-07-06T11:31:45;97493.16;;;27.92;30.91
40992;BME280;29633;49.168;9.848;2022-07-06T11:34:17;97489.25;;;27.94;31.02
40992;BME280;29633;49.168;9.848;2022-07-06T11:36:43;97487.34;;;28.01;31.13
40992;BME280;29633;49.168;9.848;2022-07-06T11:39:09;97494.75;;;27.99;30.92
40992;BME280;29633;49.168;9.848;2022-07-06T11:41:35;97495.59;;;27.93;30.64
40992;BME280;29633;49.168;9.848;2022-07-06T11:44:03;97491.53;;;27.91;30.63
40992;BME280;29633;49.168;9.848;2022-07-06T11:46:31;97491.28;;;27.99;30.48
40992;BME280;29633;49.168;9.848;2022-07-06T11:49:07;97487.16;;;28.03;30.39
40992;BME280;29633;49.168;9.848;2022-07-06T11:51:40;97482.63;;;28.10;30.30
40992;BME280;29633;49.168;9.848;2022-07-06T11:54:15;97490.75;;;28.21;30.62
40992;BME280;29633;49.168;9.848;2022-07-06T11:59:25;97490.56;;;28.41;30.73
40992;BME280;29633;49.168;9.848;2022-07-06T12:02:13;97486.03;;;28.42;30.58
40992;BME280;29633;49.168;9.848;2022-07-06T12:04:43;97474.19;;;28.38;30.52
40992;BME280;29633;49.168;9.848;2022-07-06T12:07:12;97478.31;;;28.33;30.12
40992;BME280;29633;49.168;9.848;2022-07-06T12:09:41;97474.78;;;28.40;30.21
40992;BME280;29633;49.168;9.848;2022-07-06T12:12:09;97480.06;;;28.46;30.11
40992;BME280;29633;49.168;9.848;2022-07-06T12:14:37;97460.34;;;28.47;30.10
40992;BME280;29633;49.168;9.848;2022-07-06T12:17:12;97464.81;;;28.53;29.32
40992;BME280;29633;49.168;9.848;2022-07-06T12:19:39;97471.38;;;28.51;29.33
40992;BME280;29633;49.168;9.848;2022-07-06T12:22:06;97475.56;;;28.47;29.50
40992;BME280;29633;49.168;9.848;2022-07-06T12:24:34;97457.91;;;28.46;29.62
40992;BME280;29633;49.168;9.848;2022-07-06T12:27:17;97457.09;;;28.45;29.74
40992;BME280;29633;49.168;9.848;2022-07-06T12:29:44;97463.81;;;28.48;30.00
40992;BME280;29633;49.168;9.848;2022-07-06T12:32:19;97462.34;;;28.52;29.52
40992;BME280;29633;49.168;9.848;2022-07-06T12:34:45;97468.31;;;28.54;29.54
40992;BME280;29633;49.168;9.848;2022-07-06T12:37:11;97451.84;;;28.57;29.24
40992;BME280;29633;49.168;9.848;2022-07-06T12:39:43;97455.72;;;28.61;28.86
40992;BME280;29633;49.168;9.848;2022-07-06T12:42:09;97460.59;;;28.64;29.19
40992;BME280;29633;49.168;9.848;2022-07-06T12:44:46;97462.25;;;28.65;29.09
40992;BME280;29633;49.168;9.848;2022-07-06T12:47:16;97449.13;;;28.63;29.23
40992;BME280;29633;49.168;9.848;2022-07-06T12:49:42;97459.78;;;28.63;29.28
40992;BME280;29633;49.168;9.848;2022-07-06T12:52:15;97456.91;;;28.65;29.20
40992;BME280;29633;49.168;9.848;2022-07-06T12:54:45;97454.00;;;28.66;29.27
40992;BME280;29633;49.168;9.848;2022-07-06T12:57:22;97448.25;;;28.69;28.83
40992;BME280;29633;49.168;9.848;2022-07-06T13:05:06;97456.88;;;28.90;28.89
40992;BME280;29633;49.168;9.848;2022-07-06T13:07:36;97454.59;;;28.93;28.82
40992;BME280;29633;49.168;9.848;2022-07-06T13:10:05;97446.66;;;29.05;28.98
40992;BME280;29633;49.168;9.848;2022-07-06T13:12:31;97447.06;;;29.02;28.60
40992;BME280;29633;49.168;9.848;2022-07-06T13:14:57;97451.16;;;29.04;28.60
40992;BME280;29633;49.168;9.848;2022-07-06T13:17:23;97446.56;;;29.11;28.34
40992;BME280;29633;49.168;9.848;2022-07-06T13:19:50;97455.88;;;29.20;28.37
40992;BME280;29633;49.168;9.848;2022-07-06T13:22:15;97455.44;;;29.23;28.19
40992;BME280;29633;49.168;9.848;2022-07-06T13:24:41;97445.97;;;29.27;27.71
40992;BME280;29633;49.168;9.848;2022-07-06T13:27:07;97447.81;;;29.27;27.61
40992;BME280;29633;49.168;9.848;2022-07-06T13:29:33;97443.94;;;29.23;27.86